sensor_id;sensor_type;location;lat;lon;timestamp;pressure;altitude;pressure_sealevel;temperature;humidity
59588;BME280;45412;54.472;18.464;2023-09-30T00:00:03;99685.93;;;17.59;99.61
59588;BME280;45412;54.472;18.464;2023-09-30T00:03:16;99683.52;;;17.55;99.59
59588;BME280;45412;54.472;18.464;2023-09-30T00:06:04;99687.16;;;17.52;99.53
59588;BME280;45412;54.472;18.464;2023-09-30T00:08:52;99687.98;;;17.50;99.98
59588;BME280;45412;54.472;18.464;2023-09-30T00:11:41;99690.77;;;17.49;99.97
59588;BME280;45412;54.472;18.464;2023-09-30T00:14:29;99685.23;;;17.44;100.00
59588;BME280;45412;54.472;18.464;2023-09-30T00:17:17;99687.21;;;17.44;100.00
59588;BME280;45412;54.472;18.464;2023-09-30T00:20:05;99691.39;;;17.40;100.00
59588;BME280;45412;54.472;18.464;2023-09-30T00:22:53;99689.24;;;17.37;100.00
59588;BME280;45412;54.472;18.464;2023-09-30T00:25:41;99689.27;;;17.32;100.00
59588;BME280;45412;54.472;18.464;2023-09-30T00:28:29;99688.38;;;17.27;100.00
59588;BME280;45412;54.472;18.464;2023-09-30T00:31:16;99684.27;;;17.22;100.00
59588;BME280;45412;54.472;18.464;2023-09-30T00:34:04;99684.70;;;17.18;100.00
59588;BME280;45412;54.472;18.464;2023-09-30T00:36:52;99680.59;;;17.16;100.00
59588;BME280;45412;54.472;18.464;2023-09-30T00:39:39;99680.40;;;17.16;100.00
59588;BME280;45412;54.472;18.464;2023-09-30T00:42:27;99679.16;;;17.16;100.00
59588;BME280;45412;54.472;18.464;2023-09-30T00:45:15;99683.73;;;17.17;100.00
59588;BME280;45412;54.472;18.464;2023-09-30T00:48:03;99685.80;;;17.19;100.00
59588;BME280;45412;54.472;18.464;2023-09-30T00:50:51;99685.10;;;17.21;100.00
59588;BME280;45412;54.472;18.464;2023-09-30T00:53:40;99683.61;;;17.23;100.00
59588;BME280;45412;54.472;18.464;2023-09-30T00:56:30;99687.64;;;17.26;100.00
59588;BME280;45412;54.472;18.464;2023-09-30T00:59:18;99693.14;;;17.28;100.00
59588;BME280;45412;54.472;18.464;2023-09-30T01:02:06;99694.06;;;17.29;100.00
59588;BME280;45412;54.472;18.464;2023-09-30T01:04:55;99690.08;;;17.31;100.00
59588;BME280;45412;54.472;18.464;2023-09-30T01:07:42;99681.88;;;17.27;100.00
59588;BME280;45412;54.472;18.464;2023-09-30T01:10:30;99679.63;;;17.30;100.00
59588;BME280;45412;54.472;18.464;2023-09-30T01:13:18;99673.82;;;17.29;100.00
59588;BME280;45412;54.472;18.464;2023-09-30T01:16:06;99670.89;;;17.28;100.00
59588;BME280;45412;54.472;18.464;2023-09-30T01:18:57;99675.60;;;17.26;100.00
59588;BME280;45412;54.472;18.464;2023-09-30T01:21:45;99677.77;;;17.24;100.00
59588;BME280;45412;54.472;18.464;2023-09-30T01:24:40;99679.52;;;17.21;100.00
59588;BME280;45412;54.472;18.464;2023-09-30T01:27:28;99682.38;;;17.20;100.00
59588;BME280;45412;54.472;18.464;2023-09-30T01:30:16;99682.45;;;17.17;100.00
59588;BME280;45412;54.472;18.464;2023-09-30T01:33:05;99680.80;;;17.14;100.00
59588;BME280;45412;54.472;18.464;2023-09-30T01:35:55;99684.95;;;17.13;100.00
59588;BME280;45412;54.472;18.464;2023-09-30T01:38:43;99681.55;;;17.11;100.00
59588;BME280;45412;54.472;18.464;2023-09-30T01:41:31;99679.44;;;17.11;100.00
59588;BME280;45412;54.472;18.464;2023-09-30T01:44:18;99673.13;;;17.09;100.00
59588;BME280;45412;54.472;18.464;2023-09-30T01:47:06;99676.22;;;17.08;100.00
59588;BME280;45412;54.472;18.464;2023-09-30T01:49:53;99664.57;;;17.03;100.00
59588;BME280;45412;54.472;18.464;2023-09-30T01:52:42;99664.94;;;17.04;100.00
59588;BME280;45412;54.472;18.464;2023-09-30T01:55:30;99662.76;;;17.05;100.00
59588;BME280;45412;54.472;18.464;2023-09-30T01:58:18;99672.13;;;17.02;100.00
59588;BME280;45412;54.472;18.464;2023-09-30T02:01:05;99680.92;;;17.02;100.00
59588;BME280;45412;54.472;18.464;2023-09-30T02:03:54;99675.05;;;17.04;100.00
59588;BME280;45412;54.472;18.464;2023-09-30T02:06:44;99675.55;;;17.05;100.00
59588;BME280;45412;54.472;18.464;2023-09-30T02:09:32;99682.44;;;17.09;100.00
59588;BME280;45412;54.472;18.464;2023-09-30T02:12:21;99680.55;;;17.10;100.00
59588;BME280;45412;54.472;18.464;2023-09-30T02:15:45;99687.99;;;17.17;100.00
59588;BME280;45412;54.472;18.464;2023-09-30T02:18:33;99688.95;;;17.23;100.00
59588;BME280;45412;54.472;18.464;2023-09-30T02:21:21;99686.73;;;17.27;100.00
59588;BME280;45412;54.472;18.464;2023-09-30T02:24:10;99683.02;;;17.32;100.00
59588;BME280;45412;54.472;18.464;2023-09-30T02:26:58;99688.41;;;17.36;100.00
59588;BME280;45412;54.472;18.464;2023-09-30T02:29:45;99690.05;;;17.39;100.00
59588;BME280;45412;54.472;18.464;2023-09-30T02:32:33;99697.44;;;17.42;100.00
59588;BME280;45412;54.472;18.464;2023-09-30T02:35:21;99699.94;;;17.44;100.00
59588;BME280;45412;54.472;18.464;2023-09-30T02:38:08;99702.23;;;17.46;100.00
59588;BME280;45412;54.472;18.464;2023-09-30T02:40:55;99698.67;;;17.47;100.00
59588;BME280;45412;54.472;18.464;2023-09-30T02:43:52;99704.30;;;17.50;100.00
59588;BME280;45412;54.472;18.464;2023-09-30T02:46:39;99707.20;;;17.51;100.00
59588;BME280;45412;54.472;18.464;2023-09-30T02:49:27;99705.55;;;17.53;100.00
59588;BME280;45412;54.472;18.464;2023-09-30T02:52:15;99709.10;;;17.55;100.00
59588;BME280;45412;54.472;18.464;2023-09-30T02:55:03;99712.23;;;17.56;100.00
59588;BME280;45412;54.472;18.464;2023-09-30T02:57:51;99708.66;;;17.57;100.00
59588;BME280;45412;54.472;18.464;2023-09-30T03:00:40;99712.67;;;17.60;100.00
59588;BME280;45412;54.472;18.464;2023-09-30T03:03:28;99713.03;;;17.60;100.00
59588;BME280;45412;54.472;18.464;2023-09-30T03:06:16;99713.28;;;17.61;100.00
59588;BME280;45412;54.472;18.464;2023-09-30T03:09:06;99716.01;;;17.62;100.00
59588;BME280;45412;54.472;18.464;2023-09-30T03:11:54;99713.60;;;17.61;100.00
59588;BME280;45412;54.472;18.464;2023-09-30T03:14:49;99711.64;;;17.63;100.00
59588;BME280;45412;54.472;18.464;2023-09-30T03:17:38;99719.73;;;17.64;100.00
59588;BME280;45412;54.472;18.464;2023-09-30T03:20:27;99725.48;;;17.64;100.00
59588;BME280;45412;54.472;18.464;2023-09-30T03:23:14;99731.46;;;17.65;100.00
59588;BME280;45412;54.472;18.464;2023-09-30T03:26:02;99737.39;;;17.63;100.00
59588;BME280;45412;54.472;18.464;2023-09-30T03:28:49;99746.71;;;17.60;100.00
59588;BME280;45412;54.472;18.464;2023-09-30T03:31:38;99749.63;;;17.52;100.00
59588;BME280;45412;54.472;18.464;2023-09-30T03:34:25;99761.23;;;17.39;100.00
59588;BME280;45412;54.472;18.464;2023-09-30T03:37:13;99778.30;;;17.25;100.00
59588;BME280;45412;54.472;18.464;2023-09-30T03:40:03;99791.11;;;17.06;99.97
59588;BME280;45412;54.472;18.464;2023-09-30T03:43:14;99794.80;;;16.81;99.54
59588;BME280;45412;54.472;18.464;2023-09-30T03:46:02;99804.52;;;16.64;99.28
59588;BME280;45412;54.472;18.464;2023-09-30T03:48:50;99800.36;;;16.49;98.85
59588;BME280;45412;54.472;18.464;2023-09-30T03:51:38;99809.64;;;16.38;98.94
59588;BME280;45412;54.472;18.464;2023-09-30T03:54:25;99806.96;;;16.26;99.34
59588;BME280;45412;54.472;18.464;2023-09-30T03:57:14;99811.35;;;16.15;99.74
59588;BME280;45412;54.472;18.464;2023-09-30T04:00:04;99816.79;;;16.07;99.69
59588;BME280;45412;54.472;18.464;2023-09-30T04:02:59;99821.48;;;16.00;98.76
59588;BME280;45412;54.472;18.464;2023-09-30T04:05:47;99828.38;;;15.95;98.31
59588;BME280;45412;54.472;18.464;2023-09-30T04:08:38;99830.15;;;15.91;97.67
59588;BME280;45412;54.472;18.464;2023-09-30T04:11:26;99828.54;;;15.83;97.75
59588;BME280;45412;54.472;18.464;2023-09-30T04:14:14;99843.27;;;15.83;97.69
59588;BME280;45412;54.472;18.464;2023-09-30T04:17:04;99846.98;;;15.81;97.64
59588;BME280;45412;54.472;18.464;2023-09-30T04:19:53;99855.47;;;15.79;97.76
59588;BME280;45412;54.472;18.464;2023-09-30T04:22:42;99860.30;;;15.77;97.65
59588;BME280;45412;54.472;18.464;2023-09-30T04:25:36;99862.29;;;15.73;97.72
59588;BME280;45412;54.472;18.464;2023-09-30T04:28:24;99870.44;;;15.69;98.00
59588;BME280;45412;54.472;18.464;2023-09-30T04:31:12;99869.01;;;15.65;97.59
59588;BME280;45412;54.472;18.464;2023-09-30T04:34:01;99869.31;;;15.60;96.23
59588;BME280;45412;54.472;18.464;2023-09-30T04:36:49;99871.68;;;15.58;95.98
59588;BME280;45412;54.472;18.464;2023-09-30T04:39:37;99872.86;;;15.56;94.81
59588;BME280;45412;54.472;18.464;2023-09-30T04:42:26;99875.86;;;15.54;94.06
59588;BME280;45412;54.472;18.464;2023-09-30T04:45:14;99885.52;;;15.53;94.01
59588;BME280;45412;54.472;18.464;2023-09-30T04:48:08;99891.28;;;15.48;93.90
59588;BME280;45412;54.472;18.464;2023-09-30T04:50:56;99896.17;;;15.44;93.28
59588;BME280;45412;54.472;18.464;2023-09-30T04:53:46;99896.85;;;15.37;92.90
59588;BME280;45412;54.472;18.464;2023-09-30T04:56:35;99903.31;;;15.33;92.66
59588;BME280;45412;54.472;18.464;2023-09-30T04:59:23;99904.26;;;15.29;92.33
59588;BME280;45412;54.472;18.464;2023-09-30T05:02:12;99911.59;;;15.26;91.60
59588;BME280;45412;54.472;18.464;2023-09-30T05:05:02;99919.94;;;15.19;90.50
59588;BME280;45412;54.472;18.464;2023-09-30T05:07:53;99929.89;;;15.14;90.16
59588;BME280;45412;54.472;18.464;2023-09-30T05:10:40;99930.39;;;15.07;88.87
59588;BME280;45412;54.472;18.464;2023-09-30T05:13:28;99936.58;;;15.01;88.46
59588;BME280;45412;54.472;18.464;2023-09-30T05:16:17;99943.49;;;14.92;88.35
59588;BME280;45412;54.472;18.464;2023-09-30T05:19:05;99946.23;;;14.82;88.34
59588;BME280;45412;54.472;18.464;2023-09-30T05:21:53;99957.10;;;14.73;87.74
59588;BME280;45412;54.472;18.464;2023-09-30T05:24:41;99962.24;;;14.64;86.02
59588;BME280;45412;54.472;18.464;2023-09-30T05:27:29;99965.73;;;14.59;86.28
59588;BME280;45412;54.472;18.464;2023-09-30T05:30:16;99969.73;;;14.55;86.11
59588;BME280;45412;54.472;18.464;2023-09-30T05:33:07;99972.07;;;14.53;86.15
59588;BME280;45412;54.472;18.464;2023-09-30T05:35:55;99972.55;;;14.50;86.40
59588;BME280;45412;54.472;18.464;2023-09-30T05:38:42;99974.39;;;14.51;86.65
59588;BME280;45412;54.472;18.464;2023-09-30T05:41:31;99976.63;;;14.50;86.43
59588;BME280;45412;54.472;18.464;2023-09-30T05:44:19;99981.73;;;14.51;86.44
59588;BME280;45412;54.472;18.464;2023-09-30T05:47:07;99987.09;;;14.52;86.44
59588;BME280;45412;54.472;18.464;2023-09-30T05:49:55;99987.06;;;14.53;85.92
59588;BME280;45412;54.472;18.464;2023-09-30T05:52:43;99995.44;;;14.55;86.05
59588;BME280;45412;54.472;18.464;2023-09-30T05:55:34;100002.04;;;14.58;86.00
59588;BME280;45412;54.472;18.464;2023-09-30T05:58:21;100004.90;;;14.64;85.41
59588;BME280;45412;54.472;18.464;2023-09-30T06:01:11;100006.11;;;14.76;85.16
59588;BME280;45412;54.472;18.464;2023-09-30T06:04:00;100004.06;;;14.88;84.64
59588;BME280;45412;54.472;18.464;2023-09-30T06:06:48;100015.52;;;14.99;84.29
59588;BME280;45412;54.472;18.464;2023-09-30T06:09:36;100016.89;;;15.05;83.84
59588;BME280;45412;54.472;18.464;2023-09-30T06:12:25;100016.20;;;15.07;83.11
59588;BME280;45412;54.472;18.464;2023-09-30T06:15:17;100015.96;;;15.07;83.10
59588;BME280;45412;54.472;18.464;2023-09-30T06:18:10;100020.52;;;15.10;82.88
59588;BME280;45412;54.472;18.464;2023-09-30T06:21:00;100020.94;;;15.13;82.21
59588;BME280;45412;54.472;18.464;2023-09-30T06:23:48;100018.09;;;15.26;82.37
59588;BME280;45412;54.472;18.464;2023-09-30T06:26:39;100021.50;;;15.35;81.39
59588;BME280;45412;54.472;18.464;2023-09-30T06:29:26;100021.23;;;15.34;80.85
59588;BME280;45412;54.472;18.464;2023-09-30T06:32:14;100025.43;;;15.42;80.66
59588;BME280;45412;54.472;18.464;2023-09-30T06:35:04;100023.13;;;15.42;80.07
59588;BME280;45412;54.472;18.464;2023-09-30T06:37:53;100027.61;;;15.45;79.94
59588;BME280;45412;54.472;18.464;2023-09-30T06:40:40;100031.56;;;15.49;79.49
59588;BME280;45412;54.472;18.464;2023-09-30T06:43:29;100031.17;;;15.59;79.38
59588;BME280;45412;54.472;18.464;2023-09-30T06:46:17;100033.44;;;15.77;78.91
59588;BME280;45412;54.472;18.464;2023-09-30T06:49:05;100028.44;;;16.55;77.10
59588;BME280;45412;54.472;18.464;2023-09-30T06:51:53;100027.25;;;18.13;73.04
59588;BME280;45412;54.472;18.464;2023-09-30T06:54:41;100026.45;;;19.58;66.14
59588;BME280;45412;54.472;18.464;2023-09-30T06:57:29;100033.06;;;20.79;60.73
59588;BME280;45412;54.472;18.464;2023-09-30T07:00:16;100035.03;;;21.90;56.76
59588;BME280;45412;54.472;18.464;2023-09-30T07:03:04;100038.62;;;22.89;53.28
59588;BME280;45412;54.472;18.464;2023-09-30T07:05:53;100041.91;;;23.56;49.51
59588;BME280;45412;54.472;18.464;2023-09-30T07:08:42;100039.65;;;24.29;47.96
59588;BME280;45412;54.472;18.464;2023-09-30T07:11:31;100044.87;;;24.86;45.25
59588;BME280;45412;54.472;18.464;2023-09-30T07:14:21;100048.55;;;25.25;43.95
59588;BME280;45412;54.472;18.464;2023-09-30T07:17:09;100049.17;;;25.68;43.16
59588;BME280;45412;54.472;18.464;2023-09-30T07:19:58;100049.77;;;25.78;42.20
59588;BME280;45412;54.472;18.464;2023-09-30T07:22:47;100054.30;;;25.97;41.64
59588;BME280;45412;54.472;18.464;2023-09-30T07:25:54;100054.42;;;26.50;41.18
59588;BME280;45412;54.472;18.464;2023-09-30T07:28:42;100061.04;;;27.14;38.65
59588;BME280;45412;54.472;18.464;2023-09-30T07:31:35;100063.52;;;27.60;37.43
59588;BME280;45412;54.472;18.464;2023-09-30T07:34:23;100059.77;;;28.21;36.48
59588;BME280;45412;54.472;18.464;2023-09-30T07:37:12;100062.23;;;28.51;35.30
59588;BME280;45412;54.472;18.464;2023-09-30T07:40:01;100067.34;;;28.73;34.40
59588;BME280;45412;54.472;18.464;2023-09-30T07:42:49;100075.16;;;27.94;34.96
59588;BME280;45412;54.472;18.464;2023-09-30T07:45:37;100077.73;;;27.27;36.03
59588;BME280;45412;54.472;18.464;2023-09-30T07:48:25;100076.05;;;27.29;36.48
59588;BME280;45412;54.472;18.464;2023-09-30T07:51:13;100077.36;;;27.23;36.89
59588;BME280;45412;54.472;18.464;2023-09-30T07:54:03;100078.81;;;27.37;35.94
59588;BME280;45412;54.472;18.464;2023-09-30T07:57:11;100076.80;;;26.62;37.00
59588;BME280;45412;54.472;18.464;2023-09-30T07:59:58;100086.06;;;25.47;39.02
59588;BME280;45412;54.472;18.464;2023-09-30T08:02:46;100091.37;;;24.33;41.28
59588;BME280;45412;54.472;18.464;2023-09-30T08:05:34;100098.02;;;23.20;43.88
59588;BME280;45412;54.472;18.464;2023-09-30T08:08:22;100102.63;;;22.19;46.33
59588;BME280;45412;54.472;18.464;2023-09-30T08:11:12;100106.36;;;21.29;48.90
59588;BME280;45412;54.472;18.464;2023-09-30T08:14:00;100114.52;;;20.73;51.02
59588;BME280;45412;54.472;18.464;2023-09-30T08:16:53;100109.95;;;20.33;52.18
59588;BME280;45412;54.472;18.464;2023-09-30T08:19:41;100108.46;;;20.60;52.64
59588;BME280;45412;54.472;18.464;2023-09-30T08:22:30;100095.76;;;22.40;49.31
59588;BME280;45412;54.472;18.464;2023-09-30T08:25:18;100093.69;;;23.91;44.44
59588;BME280;45412;54.472;18.464;2023-09-30T08:28:06;100096.05;;;25.04;40.64
59588;BME280;45412;54.472;18.464;2023-09-30T08:30:53;100098.96;;;25.91;39.33
59588;BME280;45412;54.472;18.464;2023-09-30T08:33:46;100099.20;;;27.27;36.27
59588;BME280;45412;54.472;18.464;2023-09-30T08:36:34;100103.00;;;27.10;35.86
59588;BME280;45412;54.472;18.464;2023-09-30T08:39:22;100104.98;;;25.73;37.67
59588;BME280;45412;54.472;18.464;2023-09-30T08:42:10;100118.60;;;24.68;40.03
59588;BME280;45412;54.472;18.464;2023-09-30T08:44:59;100123.48;;;23.40;42.40
59588;BME280;45412;54.472;18.464;2023-09-30T08:47:47;100125.14;;;22.33;44.28
59588;BME280;45412;54.472;18.464;2023-09-30T08:50:36;100126.30;;;21.80;45.96
59588;BME280;45412;54.472;18.464;2023-09-30T08:53:26;100135.27;;;23.02;44.80
59588;BME280;45412;54.472;18.464;2023-09-30T08:56:16;100133.66;;;23.37;43.08
59588;BME280;45412;54.472;18.464;2023-09-30T08:59:03;100133.00;;;23.85;42.62
59588;BME280;45412;54.472;18.464;2023-09-30T09:01:51;100137.41;;;25.29;39.20
59588;BME280;45412;54.472;18.464;2023-09-30T09:04:39;100130.60;;;26.22;36.74
59588;BME280;45412;54.472;18.464;2023-09-30T09:07:27;100143.21;;;25.10;38.17
59588;BME280;45412;54.472;18.464;2023-09-30T09:10:15;100140.42;;;24.20;40.07
59588;BME280;45412;54.472;18.464;2023-09-30T09:13:03;100143.52;;;24.31;40.12
59588;BME280;45412;54.472;18.464;2023-09-30T09:16:10;100144.42;;;23.85;41.29
59588;BME280;45412;54.472;18.464;2023-09-30T09:18:58;100148.97;;;25.35;39.71
59588;BME280;45412;54.472;18.464;2023-09-30T09:21:54;100154.20;;;25.18;38.85
59588;BME280;45412;54.472;18.464;2023-09-30T09:24:45;100154.17;;;24.58;39.62
59588;BME280;45412;54.472;18.464;2023-09-30T09:27:34;100157.19;;;24.56;40.04
59588;BME280;45412;54.472;18.464;2023-09-30T09:30:27;100157.95;;;24.83;39.49
59588;BME280;45412;54.472;18.464;2023-09-30T09:33:15;100159.80;;;24.26;39.98
59588;BME280;45412;54.472;18.464;2023-09-30T09:36:05;100167.97;;;23.50;41.11
59588;BME280;45412;54.472;18.464;2023-09-30T09:38:53;100173.70;;;22.52;42.45
59588;BME280;45412;54.472;18.464;2023-09-30T09:41:51;100175.90;;;22.10;43.93
59588;BME280;45412;54.472;18.464;2023-09-30T09:44:40;100165.75;;;24.07;41.24
59588;BME280;45412;54.472;18.464;2023-09-30T09:47:33;100162.52;;;25.89;37.95
59588;BME280;45412;54.472;18.464;2023-09-30T09:50:22;100160.60;;;27.70;34.92
59588;BME280;45412;54.472;18.464;2023-09-30T09:53:11;100160.64;;;28.72;31.45
59588;BME280;45412;54.472;18.464;2023-09-30T09:55:59;100161.42;;;29.38;29.53
59588;BME280;45412;54.472;18.464;2023-09-30T09:58:48;100162.98;;;30.02;28.41
59588;BME280;45412;54.472;18.464;2023-09-30T10:01:37;100165.82;;;29.95;28.80
59588;BME280;45412;54.472;18.464;2023-09-30T10:04:27;100168.35;;;28.41;30.23
59588;BME280;45412;54.472;18.464;2023-09-30T10:07:23;100171.73;;;26.98;32.83
59588;BME280;45412;54.472;18.464;2023-09-30T10:10:16;100176.02;;;25.97;34.78
59588;BME280;45412;54.472;18.464;2023-09-30T10:13:05;100177.58;;;25.71;35.86
59588;BME280;45412;54.472;18.464;2023-09-30T10:15:53;100173.98;;;26.54;34.93
59588;BME280;45412;54.472;18.464;2023-09-30T10:25:35;100183.77;;;23.75;39.75
59588;BME280;45412;54.472;18.464;2023-09-30T10:31:24;100203.45;;;21.63;44.90
59588;BME280;45412;54.472;18.464;2023-09-30T10:34:22;100198.04;;;20.85;47.19
59588;BME280;45412;54.472;18.464;2023-09-30T10:37:28;100200.45;;;20.15;49.60
59588;BME280;45412;54.472;18.464;2023-09-30T10:40:30;100206.54;;;19.87;51.18
59588;BME280;45412;54.472;18.464;2023-09-30T10:43:39;100201.94;;;20.10;51.47
59588;BME280;45412;54.472;18.464;2023-09-30T10:52:10;100190.98;;;24.95;41.04
59588;BME280;45412;54.472;18.464;2023-09-30T10:55:03;100193.84;;;25.41;39.33
59588;BME280;45412;54.472;18.464;2023-09-30T10:57:52;100203.61;;;26.24;37.81
59588;BME280;45412;54.472;18.464;2023-09-30T11:00:52;100197.16;;;26.87;36.10
59588;BME280;45412;54.472;18.464;2023-09-30T11:03:43;100202.36;;;27.29;35.20
59588;BME280;45412;54.472;18.464;2023-09-30T11:06:32;100201.77;;;27.83;34.40
59588;BME280;45412;54.472;18.464;2023-09-30T11:09:22;100207.05;;;28.29;33.80
59588;BME280;45412;54.472;18.464;2023-09-30T11:12:13;100199.22;;;27.25;34.89
59588;BME280;45412;54.472;18.464;2023-09-30T11:15:02;100196.52;;;26.56;35.96
59588;BME280;45412;54.472;18.464;2023-09-30T11:18:13;100201.95;;;26.77;35.59
59588;BME280;45412;54.472;18.464;2023-09-30T11:23:52;100210.32;;;24.52;39.18
59588;BME280;45412;54.472;18.464;2023-09-30T11:26:40;100214.29;;;23.84;40.11
59588;BME280;45412;54.472;18.464;2023-09-30T11:29:28;100214.16;;;23.85;40.20
59588;BME280;45412;54.472;18.464;2023-09-30T11:32:28;100210.09;;;23.83;40.38
59588;BME280;45412;54.472;18.464;2023-09-30T11:35:23;100209.55;;;24.14;39.60
59588;BME280;45412;54.472;18.464;2023-09-30T11:38:11;100205.47;;;24.22;38.93
59588;BME280;45412;54.472;18.464;2023-09-30T11:41:04;100209.54;;;24.32;39.02
59588;BME280;45412;54.472;18.464;2023-09-30T11:47:01;100211.41;;;23.39;41.43
59588;BME280;45412;54.472;18.464;2023-09-30T11:49:53;100216.39;;;22.80;42.42
59588;BME280;45412;54.472;18.464;2023-09-30T11:52:44;100211.81;;;22.44;43.72
59588;BME280;45412;54.472;18.464;2023-09-30T11:55:34;100210.14;;;22.29;44.30
59588;BME280;45412;54.472;18.464;2023-09-30T11:58:28;100212.67;;;22.51;43.31
59588;BME280;45412;54.472;18.464;2023-09-30T12:01:16;100207.92;;;22.86;42.70
59588;BME280;45412;54.472;18.464;2023-09-30T12:04:04;100204.45;;;23.41;42.20
59588;BME280;45412;54.472;18.464;2023-09-30T12:06:51;100209.18;;;23.23;41.52
59588;BME280;45412;54.472;18.464;2023-09-30T12:09:40;100215.18;;;22.70;42.00
59588;BME280;45412;54.472;18.464;2023-09-30T12:12:28;100223.23;;;22.21;42.67
59588;BME280;45412;54.472;18.464;2023-09-30T12:15:17;100224.50;;;21.70;44.16
59588;BME280;45412;54.472;18.464;2023-09-30T12:18:04;100222.88;;;21.38;45.09
59588;BME280;45412;54.472;18.464;2023-09-30T12:20:54;100222.98;;;21.18;45.65
59588;BME280;45412;54.472;18.464;2023-09-30T12:23:42;100220.55;;;21.08;45.91
59588;BME280;45412;54.472;18.464;2023-09-30T12:26:30;100215.45;;;21.01;46.33
59588;BME280;45412;54.472;18.464;2023-09-30T12:29:20;100218.25;;;21.05;46.67
59588;BME280;45412;54.472;18.464;2023-09-30T12:32:09;100217.41;;;20.91;45.92
59588;BME280;45412;54.472;18.464;2023-09-30T12:34:57;100212.59;;;20.67;46.23
59588;BME280;45412;54.472;18.464;2023-09-30T12:37:45;100219.04;;;20.29;47.03
59588;BME280;45412;54.472;18.464;2023-09-30T12:40:33;100223.69;;;19.90;47.63
59588;BME280;45412;54.472;18.464;2023-09-30T12:43:21;100229.84;;;19.73;48.03
59588;BME280;45412;54.472;18.464;2023-09-30T12:46:09;100231.94;;;19.66;47.68
59588;BME280;45412;54.472;18.464;2023-09-30T12:48:57;100235.62;;;19.64;48.00
59588;BME280;45412;54.472;18.464;2023-09-30T12:51:46;100237.02;;;19.64;48.58
59588;BME280;45412;54.472;18.464;2023-09-30T12:54:33;100235.30;;;19.66;49.21
59588;BME280;45412;54.472;18.464;2023-09-30T12:57:21;100232.77;;;19.51;49.85
59588;BME280;45412;54.472;18.464;2023-09-30T13:00:10;100234.08;;;19.52;50.31
59588;BME280;45412;54.472;18.464;2023-09-30T13:02:59;100234.95;;;19.54;50.80
59588;BME280;45412;54.472;18.464;2023-09-30T13:05:48;100235.56;;;19.40;51.58
59588;BME280;45412;54.472;18.464;2023-09-30T13:08:35;100237.77;;;19.16;52.39
59588;BME280;45412;54.472;18.464;2023-09-30T13:11:23;100232.90;;;18.94;53.38
59588;BME280;45412;54.472;18.464;2023-09-30T13:14:11;100232.71;;;18.70;54.42
59588;BME280;45412;54.472;18.464;2023-09-30T13:16:59;100235.86;;;18.50;55.15
59588;BME280;45412;54.472;18.464;2023-09-30T13:19:46;100238.30;;;18.53;56.16
59588;BME280;45412;54.472;18.464;2023-09-30T13:22:36;100233.83;;;18.64;55.68
59588;BME280;45412;54.472;18.464;2023-09-30T13:25:25;100238.13;;;18.58;55.44
59588;BME280;45412;54.472;18.464;2023-09-30T13:28:14;100237.38;;;18.38;55.38
59588;BME280;45412;54.472;18.464;2023-09-30T13:31:01;100234.66;;;18.27;55.53
59588;BME280;45412;54.472;18.464;2023-09-30T13:33:49;100229.67;;;18.26;55.71
59588;BME280;45412;54.472;18.464;2023-09-30T13:36:37;100228.63;;;18.27;55.58
59588;BME280;45412;54.472;18.464;2023-09-30T13:39:25;100227.96;;;18.30;55.43
59588;BME280;45412;54.472;18.464;2023-09-30T13:42:13;100228.16;;;18.30;55.64
59588;BME280;45412;54.472;18.464;2023-09-30T13:45:02;100228.36;;;18.30;56.30
59588;BME280;45412;54.472;18.464;2023-09-30T13:47:51;100229.03;;;18.22;56.42
59588;BME280;45412;54.472;18.464;2023-09-30T13:50:41;100232.55;;;18.16;56.86
59588;BME280;45412;54.472;18.464;2023-09-30T13:53:29;100237.53;;;18.03;57.50
59588;BME280;45412;54.472;18.464;2023-09-30T13:56:17;100239.63;;;17.97;58.34
59588;BME280;45412;54.472;18.464;2023-09-30T13:59:05;100233.02;;;18.00;57.93
59588;BME280;45412;54.472;18.464;2023-09-30T14:01:56;100224.33;;;18.01;58.02
59588;BME280;45412;54.472;18.464;2023-09-30T14:04:44;100222.08;;;17.94;58.25
59588;BME280;45412;54.472;18.464;2023-09-30T14:07:32;100216.79;;;17.92;58.60
59588;BME280;45412;54.472;18.464;2023-09-30T14:10:20;100213.34;;;17.92;58.64
59588;BME280;45412;54.472;18.464;2023-09-30T14:13:08;100224.31;;;17.86;58.76
59588;BME280;45412;54.472;18.464;2023-09-30T14:15:56;100219.31;;;17.76;59.13
59588;BME280;45412;54.472;18.464;2023-09-30T14:18:43;100222.81;;;17.70;59.19
59588;BME280;45412;54.472;18.464;2023-09-30T14:21:32;100216.10;;;17.76;59.19
59588;BME280;45412;54.472;18.464;2023-09-30T14:24:20;100212.56;;;17.89;58.78
59588;BME280;45412;54.472;18.464;2023-09-30T14:27:08;100202.99;;;17.92;58.57
59588;BME280;45412;54.472;18.464;2023-09-30T14:29:56;100199.98;;;17.84;58.65
59588;BME280;45412;54.472;18.464;2023-09-30T14:32:43;100200.43;;;17.77;58.70
59588;BME280;45412;54.472;18.464;2023-09-30T14:35:34;100213.25;;;17.67;58.71
59588;BME280;45412;54.472;18.464;2023-09-30T14:38:22;100224.17;;;17.56;59.33
59588;BME280;45412;54.472;18.464;2023-09-30T14:41:11;100223.04;;;17.41;60.27
59588;BME280;45412;54.472;18.464;2023-09-30T14:44:04;100215.08;;;17.27;61.30
59588;BME280;45412;54.472;18.464;2023-09-30T14:46:55;100221.08;;;17.14;61.75
59588;BME280;45412;54.472;18.464;2023-09-30T14:49:43;100222.48;;;17.00;62.11
59588;BME280;45412;54.472;18.464;2023-09-30T14:52:31;100219.54;;;16.92;62.51
59588;BME280;45412;54.472;18.464;2023-09-30T14:55:18;100220.45;;;16.80;63.58
59588;BME280;45412;54.472;18.464;2023-09-30T14:58:06;100219.22;;;16.67;64.26